createdAt,value
2019-01-11T00:02:09.364Z,10.30
2019-01-11T00:04:59.358Z,11.30
2019-01-11T00:07:49.557Z,11.23
2019-01-11T00:10:39.751Z,11.70
2019-01-11T00:13:29.249Z,11.37
2019-01-11T00:16:19.353Z,11.50
2019-01-11T00:19:09.115Z,9.73
2019-01-11T00:21:58.958Z,8.57
2019-01-11T00:24:48.564Z,8.30
2019-01-11T00:27:38.622Z,8.50
2019-01-11T00:30:28.632Z,7.83
2019-01-11T00:33:18.441Z,6.80
2019-01-11T00:36:08.219Z,5.70
2019-01-11T00:38:59.571Z,6.50
2019-01-11T00:41:49.589Z,4.70
2019-01-11T00:44:40.374Z,5.67
2019-01-11T00:47:30.161Z,4.23
2019-01-11T00:50:22.645Z,4.27
2019-01-11T00:53:13.152Z,4.83
2019-01-11T00:56:03.028Z,5.10
2019-01-11T00:58:52.870Z,5.37
2019-01-11T01:01:43.006Z,4.40
2019-01-11T01:04:33.163Z,4.73
2019-01-11T01:07:23.336Z,5.20
2019-01-11T01:10:13.470Z,5.80
2019-01-11T01:13:03.441Z,5.30
2019-01-11T01:15:53.445Z,4.97
2019-01-11T01:18:43.233Z,6.07
2019-01-11T01:21:32.828Z,4.10
2019-01-11T01:24:22.434Z,5.60
2019-01-11T01:27:12.271Z,5.70
2019-01-11T01:30:02.318Z,6.40
2019-01-11T01:32:52.826Z,6.20
2019-01-11T01:35:42.515Z,6.90
2019-01-11T01:38:32.673Z,6.60
2019-01-11T01:41:22.711Z,7.47
2019-01-11T01:44:12.970Z,6.87
2019-01-11T01:47:02.887Z,6.70
2019-01-11T01:49:52.690Z,7.13
2019-01-11T01:52:42.771Z,8.50
2019-01-11T01:55:32.426Z,7.03
2019-01-11T01:58:21.423Z,7.40
2019-01-11T02:01:11.424Z,8.10
2019-01-11T02:04:01.026Z,9.00
2019-01-11T02:06:51.307Z,8.10
2019-01-11T02:09:41.271Z,7.70
2019-01-11T02:12:31.101Z,8.20
2019-01-11T02:15:20.981Z,8.87
2019-01-11T02:18:10.990Z,8.97
2019-01-11T02:21:01.382Z,9.10
2019-01-11T02:23:51.252Z,9.50
2019-01-11T02:26:41.458Z,9.83
2019-01-11T02:29:31.363Z,9.40
2019-01-11T02:32:21.680Z,9.30
2019-01-11T02:35:11.864Z,9.53
2019-01-11T02:38:01.846Z,9.30
2019-01-11T02:40:52.002Z,9.40
2019-01-11T02:43:41.773Z,10.23
2019-01-11T02:46:31.863Z,9.17
2019-01-11T02:49:21.733Z,9.57
2019-01-11T02:52:11.903Z,10.73
2019-01-11T02:55:02.137Z,9.87
2019-01-11T02:57:52.222Z,9.53
2019-01-11T03:00:41.974Z,10.87
2019-01-11T03:03:32.978Z,10.40
2019-01-11T03:06:22.862Z,10.23
2019-01-11T03:09:13.112Z,11.73
2019-01-11T03:12:02.969Z,10.33
2019-01-11T03:14:53.027Z,11.20
2019-01-11T03:17:43.321Z,11.43
2019-01-11T03:20:32.961Z,10.50
2019-01-11T03:23:22.800Z,10.37
2019-01-11T03:26:12.956Z,10.73
2019-01-11T03:29:02.704Z,9.90
2019-01-11T03:31:52.539Z,10.87
2019-01-11T03:35:00.347Z,10.00
2019-01-11T03:37:51.749Z,10.87
2019-01-11T03:40:41.549Z,10.53
2019-01-11T03:43:31.393Z,11.20
2019-01-11T03:46:21.514Z,10.70
2019-01-11T03:49:11.576Z,10.50
2019-01-11T03:52:01.720Z,11.40
2019-01-11T03:54:52.109Z,11.90
2019-01-11T03:57:42.003Z,10.90
2019-01-11T04:00:31.728Z,13.10
2019-01-11T04:03:21.588Z,11.07
2019-01-11T04:06:11.396Z,12.77
2019-01-11T04:09:01.536Z,11.87
2019-01-11T04:11:52.681Z,12.70
2019-01-11T04:14:42.928Z,13.27
2019-01-11T04:17:32.892Z,14.30
2019-01-11T04:20:22.458Z,12.97
2019-01-11T04:23:12.167Z,13.60
2019-01-11T04:26:02.238Z,14.73
2019-01-11T04:28:52.341Z,14.20
2019-01-11T04:31:42.001Z,13.90
2019-01-11T04:34:31.813Z,14.40
2019-01-11T04:37:21.761Z,14.07
2019-01-11T04:40:13.043Z,14.87
2019-01-11T04:43:03.303Z,16.00
2019-01-11T04:45:53.538Z,15.33
2019-01-11T04:48:43.640Z,14.57
2019-01-11T04:51:33.182Z,15.10
2019-01-11T04:54:24.349Z,16.63
2019-01-11T04:57:14.490Z,18.37
2019-01-11T05:00:09.647Z,16.87
2019-01-11T05:02:59.731Z,16.00
2019-01-11T05:05:50.710Z,18.90
2019-01-11T05:08:40.528Z,17.27
2019-01-11T05:11:30.371Z,17.07
2019-01-11T05:14:20.752Z,17.33
2019-01-11T05:17:10.891Z,17.37
2019-01-11T05:20:00.670Z,17.60
2019-01-11T05:22:51.807Z,19.67
2019-01-11T05:25:41.657Z,19.93
2019-01-11T05:28:31.426Z,19.30
2019-01-11T05:31:21.618Z,17.10
2019-01-11T05:34:11.500Z,19.20
2019-01-11T05:37:01.460Z,17.53
2019-01-11T05:39:52.852Z,18.30
2019-01-11T05:42:43.164Z,19.30
2019-01-11T05:45:32.704Z,19.83
2019-01-11T05:48:22.774Z,17.40
2019-01-11T05:51:12.461Z,18.60
2019-01-11T05:54:01.983Z,18.40
2019-01-11T05:56:51.834Z,17.63
2019-01-11T05:59:41.464Z,18.43
2019-01-11T06:02:31.296Z,18.13
2019-01-11T06:05:21.215Z,19.00
2019-01-11T06:08:14.735Z,18.07
2019-01-11T06:11:04.955Z,19.27
2019-01-11T06:13:54.866Z,20.13
2019-01-11T06:16:44.878Z,18.83
2019-01-11T06:19:34.955Z,19.20
2019-01-11T06:22:25.319Z,19.90
2019-01-11T06:25:15.476Z,18.83
2019-01-11T06:28:05.742Z,20.00
2019-01-11T06:30:55.746Z,19.43
2019-01-11T06:33:46.712Z,18.67
2019-01-11T06:36:36.988Z,18.27
2019-01-11T06:39:26.734Z,19.67
2019-01-11T06:42:26.412Z,19.87
2019-01-11T06:45:16.253Z,18.67
2019-01-11T06:48:11.566Z,19.77
2019-01-11T06:51:01.183Z,18.60
2019-01-11T06:53:51.475Z,18.97
2019-01-11T06:56:42.456Z,18.07
2019-01-11T06:59:32.011Z,17.20
2019-01-11T07:02:22.379Z,18.77
2019-01-11T07:05:13.046Z,19.50
2019-01-11T07:08:02.503Z,19.43
2019-01-11T07:10:52.865Z,17.20
2019-01-11T07:13:42.994Z,19.70
2019-01-11T07:16:33.135Z,17.73
2019-01-11T07:19:22.971Z,17.23
2019-01-11T07:22:13.057Z,16.00
2019-01-11T07:25:03.350Z,17.63
2019-01-11T07:28:01.082Z,17.63
2019-01-11T07:31:06.912Z,16.33
2019-01-11T07:33:56.521Z,18.17
2019-01-11T07:36:49.168Z,18.53
2019-01-11T07:39:39.318Z,17.30
2019-01-11T07:42:29.296Z,16.90
2019-01-11T07:45:19.435Z,16.60
2019-01-11T07:48:09.607Z,16.40
2019-01-11T07:50:58.750Z,15.47
2019-01-11T07:53:48.701Z,16.97
2019-01-11T07:56:38.364Z,15.57
2019-01-11T07:59:28.055Z,16.23
2019-01-11T08:02:17.917Z,16.67
2019-01-11T08:05:08.783Z,15.20
2019-01-11T08:07:58.805Z,14.33
2019-01-11T08:10:48.631Z,14.70
2019-01-11T08:13:38.775Z,14.70
2019-01-11T08:16:28.939Z,15.70
2019-01-11T08:19:18.786Z,13.30
2019-01-11T08:22:10.139Z,16.87
2019-01-11T08:25:03.934Z,13.40
2019-01-11T08:27:53.644Z,15.17
2019-01-11T08:30:43.462Z,14.83
2019-01-11T08:33:34.262Z,13.60
2019-01-11T08:36:24.482Z,15.63
2019-01-11T08:39:14.417Z,12.70
2019-01-11T08:42:04.491Z,13.53
2019-01-11T08:44:54.865Z,13.00
2019-01-11T08:47:45.103Z,11.40
2019-01-11T08:50:35.007Z,13.67
2019-01-11T08:53:25.113Z,12.27
2019-01-11T08:56:15.750Z,13.00
2019-01-11T08:59:05.789Z,13.10
2019-01-11T09:01:56.237Z,14.07
2019-01-11T09:04:46.360Z,12.83
2019-01-11T09:07:36.552Z,12.63
2019-01-11T09:10:26.450Z,12.00
2019-01-11T09:13:16.148Z,11.30
2019-01-11T09:16:06.381Z,11.20
2019-01-11T09:18:58.587Z,13.90
2019-01-11T09:21:48.521Z,11.93
2019-01-11T09:24:38.523Z,11.97
2019-01-11T09:27:28.667Z,11.90
2019-01-11T09:30:18.987Z,10.87
2019-01-11T09:33:08.710Z,11.57
2019-01-11T09:35:58.527Z,10.63
2019-01-11T09:38:48.834Z,10.90
2019-01-11T09:41:38.767Z,11.40
2019-01-11T09:44:28.702Z,11.43
2019-01-11T09:47:18.896Z,10.27
2019-01-11T09:50:09.510Z,10.67
2019-01-11T09:52:59.127Z,10.17
2019-01-11T09:55:48.969Z,10.40
2019-01-11T09:58:39.008Z,10.10
2019-01-11T10:01:28.879Z,10.03
2019-01-11T10:04:23.771Z,9.97
2019-01-11T10:07:25.488Z,13.90
2019-01-11T10:10:16.730Z,10.47
2019-01-11T10:13:06.889Z,10.13
2019-01-11T10:15:57.181Z,9.13
2019-01-11T10:18:47.190Z,11.07
2019-01-11T10:21:37.177Z,10.60
2019-01-11T10:24:27.411Z,10.50
2019-01-11T10:27:17.044Z,9.00
2019-01-11T10:30:12.646Z,8.90
2019-01-11T10:33:02.434Z,8.60
2019-01-11T10:35:52.242Z,8.33
2019-01-11T10:38:42.201Z,8.60
2019-01-11T10:41:32.624Z,8.60
2019-01-11T10:44:22.722Z,9.63
2019-01-11T10:47:12.632Z,8.37
2019-01-11T10:50:02.825Z,9.03
2019-01-11T10:52:52.803Z,7.70
2019-01-11T10:55:43.058Z,9.00
2019-01-11T10:58:33.038Z,7.50
2019-01-11T11:01:22.452Z,9.37
2019-01-11T11:04:12.339Z,7.50
2019-01-11T11:07:02.495Z,8.43
2019-01-11T11:09:52.674Z,7.97
2019-01-11T11:12:42.786Z,8.90
2019-01-11T11:15:32.648Z,8.50
2019-01-11T11:18:22.648Z,9.20
2019-01-11T11:21:12.706Z,9.30
2019-01-11T11:24:02.621Z,7.63
2019-01-11T11:26:52.626Z,8.97
2019-01-11T11:29:42.984Z,7.30
2019-01-11T11:33:04.265Z,10.07
2019-01-11T11:35:54.358Z,9.33
2019-01-11T11:38:44.509Z,11.50
2019-01-11T11:41:34.470Z,8.53
2019-01-11T11:44:24.454Z,9.23
2019-01-11T11:47:14.995Z,9.43
2019-01-11T11:50:05.741Z,9.50
2019-01-11T11:52:55.697Z,10.20
2019-01-11T11:55:45.561Z,10.13
2019-01-11T11:58:35.125Z,10.43
2019-01-11T12:01:25.274Z,9.20
2019-01-11T12:04:15.429Z,10.23
2019-01-11T12:07:07.700Z,10.60
2019-01-11T12:09:57.736Z,9.90
2019-01-11T12:12:47.817Z,10.57
2019-01-11T12:15:37.560Z,9.53
2019-01-11T12:18:28.058Z,10.53
2019-01-11T12:21:18.163Z,10.83
2019-01-11T12:24:07.947Z,12.70
2019-01-11T12:26:57.772Z,12.53
2019-01-11T12:29:47.832Z,11.40
2019-01-11T12:32:37.961Z,9.60
2019-01-11T12:35:28.385Z,9.80
2019-01-11T12:38:18.597Z,10.40
2019-01-11T12:41:08.493Z,10.73
2019-01-11T12:43:58.681Z,12.27
2019-01-11T12:46:48.492Z,10.80
2019-01-11T12:49:39.019Z,12.40
2019-01-11T12:52:28.924Z,12.83
2019-01-11T12:55:18.862Z,12.30
2019-01-11T12:58:08.852Z,14.20
2019-01-11T13:00:59.368Z,13.50
2019-01-11T13:03:49.776Z,13.43
2019-01-11T13:06:39.140Z,11.97
2019-01-11T13:09:28.786Z,12.90
2019-01-11T13:12:18.928Z,11.83
2019-01-11T13:15:12.397Z,12.30
2019-01-11T13:18:01.982Z,13.63
2019-01-11T13:20:51.925Z,11.70
2019-01-11T13:23:42.754Z,13.43
2019-01-11T13:26:33.114Z,13.53
2019-01-11T13:29:23.049Z,14.67
2019-01-11T13:32:12.816Z,13.77
2019-01-11T13:35:02.520Z,14.53
2019-01-11T13:37:52.327Z,13.40
2019-01-11T13:40:42.449Z,13.93
2019-01-11T13:43:32.499Z,14.87
2019-01-11T13:46:22.745Z,15.47
2019-01-11T13:49:12.777Z,14.40
2019-01-11T13:52:07.117Z,13.63
2019-01-11T13:54:54.359Z,14.57
2019-01-11T13:57:44.438Z,14.63
2019-01-11T14:00:34.394Z,13.73
2019-01-11T14:03:24.296Z,16.57
2019-01-11T14:06:14.091Z,15.33
2019-01-11T14:09:05.721Z,14.87
2019-01-11T14:11:55.906Z,16.17
2019-01-11T14:14:46.002Z,14.63
2019-01-11T14:17:35.742Z,13.97
2019-01-11T14:20:26.777Z,14.27
2019-01-11T14:23:16.741Z,15.47
2019-01-11T14:26:06.606Z,13.70
2019-01-11T14:28:56.696Z,14.03
2019-01-11T14:31:46.633Z,13.63
2019-01-11T14:34:36.152Z,14.10
2019-01-11T14:37:32.151Z,19.67
2019-01-11T14:40:17.546Z,14.40
2019-01-11T14:43:07.414Z,13.80
2019-01-11T14:45:57.204Z,13.90
2019-01-11T14:48:47.675Z,16.03
2019-01-11T14:51:37.582Z,13.47
2019-01-11T14:54:27.747Z,14.10
2019-01-11T14:57:17.939Z,12.97
2019-01-11T15:00:13.757Z,13.50
2019-01-11T15:03:03.579Z,12.80
2019-01-11T15:05:53.329Z,15.20
2019-01-11T15:08:43.412Z,13.57
2019-01-11T15:11:33.640Z,15.80
2019-01-11T15:14:23.617Z,15.03
2019-01-11T15:17:13.702Z,13.40
2019-01-11T15:20:03.628Z,13.53
2019-01-11T15:22:53.938Z,14.37
2019-01-11T15:25:44.007Z,13.60
2019-01-11T15:28:33.970Z,13.67
2019-01-11T15:31:23.879Z,12.00
2019-01-11T15:34:13.887Z,13.60
2019-01-11T15:37:04.162Z,17.00
2019-01-11T15:39:54.164Z,14.70
2019-01-11T15:42:44.269Z,12.37
2019-01-11T15:45:34.504Z,12.50
2019-01-11T15:48:51.040Z,13.77
2019-01-11T15:51:41.178Z,12.20
2019-01-11T15:54:31.284Z,12.10
2019-01-11T15:57:41.926Z,13.40
2019-01-11T16:00:31.944Z,14.50
2019-01-11T16:03:21.485Z,11.73
2019-01-11T16:06:34.563Z,15.90
2019-01-11T16:09:59.425Z,13.20
2019-01-11T16:13:16.738Z,13.43
2019-01-11T16:16:51.410Z,12.00
2019-01-11T16:19:41.441Z,13.83
2019-01-11T16:22:31.898Z,14.77
2019-01-11T16:25:21.273Z,12.30
2019-01-11T16:28:11.572Z,13.60
2019-01-11T16:31:01.321Z,14.50
2019-01-11T16:33:51.483Z,13.73
2019-01-11T16:36:41.611Z,14.47
2019-01-11T16:39:31.431Z,15.40
2019-01-11T16:42:21.377Z,13.00
2019-01-11T16:45:13.193Z,12.90
2019-01-11T16:48:02.793Z,15.00
2019-01-11T16:50:52.490Z,14.67
2019-01-11T16:53:42.279Z,13.07
2019-01-11T16:56:32.371Z,15.37
2019-01-11T16:59:22.516Z,13.70
2019-01-11T17:02:13.029Z,12.67
2019-01-11T17:05:02.667Z,12.70
2019-01-11T17:07:52.443Z,12.70
2019-01-11T17:10:42.888Z,12.83
2019-01-11T17:13:40.392Z,10.83
2019-01-11T17:16:26.108Z,12.33
2019-01-11T17:19:16.690Z,12.07
2019-01-11T17:22:06.623Z,13.47
2019-01-11T17:24:56.705Z,12.30
2019-01-11T17:27:46.712Z,11.53
2019-01-11T17:30:37.843Z,12.60
2019-01-11T17:33:27.590Z,12.50
2019-01-11T17:36:17.331Z,14.23
2019-01-11T17:39:09.504Z,12.37
2019-01-11T17:41:59.039Z,12.47
2019-01-11T17:44:49.369Z,11.83
2019-01-11T17:47:39.649Z,12.20
2019-01-11T17:50:29.489Z,11.00
2019-01-11T17:53:19.411Z,12.23
2019-01-11T17:56:09.548Z,11.50
2019-01-11T17:58:59.155Z,13.00
2019-01-11T18:01:49.531Z,12.97
2019-01-11T18:04:39.561Z,12.40
2019-01-11T18:07:28.840Z,11.30
2019-01-11T18:10:19.085Z,11.07
2019-01-11T18:13:08.967Z,10.90
2019-01-11T18:15:58.712Z,12.53
2019-01-11T18:18:48.744Z,11.20
2019-01-11T18:21:38.535Z,11.90
2019-01-11T18:24:28.403Z,11.30
2019-01-11T18:27:18.626Z,11.80
2019-01-11T18:30:10.046Z,11.53
2019-01-11T18:33:00.085Z,12.03
2019-01-11T18:35:50.595Z,11.17
2019-01-11T18:38:40.100Z,11.60
2019-01-11T18:41:30.440Z,12.57
2019-01-11T18:44:20.492Z,10.90
2019-01-11T18:47:10.036Z,11.30
2019-01-11T18:49:59.799Z,12.90
2019-01-11T18:52:49.626Z,10.20
2019-01-11T18:55:39.733Z,10.57
2019-01-11T18:58:29.674Z,9.53
2019-01-11T19:01:19.317Z,10.87
2019-01-11T19:04:09.281Z,11.33
2019-01-11T19:06:59.388Z,10.33
2019-01-11T19:09:49.256Z,10.47
2019-01-11T19:12:39.454Z,10.73
2019-01-11T19:15:30.160Z,12.43
2019-01-11T19:18:20.005Z,10.23
2019-01-11T19:21:12.901Z,10.70
2019-01-11T19:24:02.948Z,12.33
2019-01-11T19:26:53.162Z,11.40
2019-01-11T19:29:43.081Z,11.00
2019-01-11T19:32:34.746Z,10.30
2019-01-11T19:35:24.876Z,10.97
2019-01-11T19:38:14.954Z,10.30
2019-01-11T19:41:04.856Z,10.13
2019-01-11T19:43:54.422Z,10.10
2019-01-11T19:46:45.624Z,10.63
2019-01-11T19:49:35.332Z,10.53
2019-01-11T19:52:25.588Z,10.47
2019-01-11T19:55:15.656Z,9.87
2019-01-11T19:58:05.718Z,10.53
2019-01-11T20:00:55.757Z,11.67
2019-01-11T20:03:45.873Z,9.80
2019-01-11T20:06:36.337Z,10.57
2019-01-11T20:09:26.065Z,10.13
2019-01-11T20:12:15.897Z,8.80
2019-01-11T20:15:07.113Z,8.60
2019-01-11T20:17:56.921Z,9.87
2019-01-11T20:20:46.331Z,9.30
2019-01-11T20:23:37.060Z,8.80
2019-01-11T20:26:27.438Z,9.27
2019-01-11T20:29:17.619Z,8.40
2019-01-11T20:32:07.275Z,8.80
2019-01-11T20:34:57.084Z,8.83
2019-01-11T20:37:47.855Z,8.10
2019-01-11T20:40:37.432Z,9.50
2019-01-11T20:43:27.343Z,8.73
2019-01-11T20:46:17.353Z,9.83
2019-01-11T20:49:07.409Z,8.40
2019-01-11T20:51:57.577Z,8.83
2019-01-11T20:54:47.293Z,10.23
2019-01-11T20:57:37.246Z,8.50
2019-01-11T21:00:33.266Z,8.43
2019-01-11T21:03:24.469Z,10.30
2019-01-11T21:06:14.266Z,10.50
2019-01-11T21:09:06.505Z,9.60
2019-01-11T21:11:56.345Z,9.73
2019-01-11T21:14:46.764Z,9.43
2019-01-11T21:17:36.460Z,9.93
2019-01-11T21:20:26.790Z,10.60
2019-01-11T21:23:17.184Z,11.10
2019-01-11T21:26:07.475Z,8.90
2019-01-11T21:28:57.554Z,9.03
2019-01-11T21:31:47.336Z,9.97
2019-01-11T21:34:37.299Z,9.77
2019-01-11T21:37:27.453Z,10.13
2019-01-11T21:40:19.544Z,10.20
2019-01-11T21:43:08.904Z,10.27
2019-01-11T21:46:03.234Z,8.83
2019-01-11T21:48:50.900Z,10.70
2019-01-11T21:51:41.115Z,9.50
2019-01-11T21:54:30.939Z,11.43
2019-01-11T21:57:20.648Z,9.70
2019-01-11T22:00:24.109Z,10.27
2019-01-11T22:03:18.615Z,10.37
2019-01-11T22:06:08.397Z,10.60
2019-01-11T22:08:57.879Z,10.67
2019-01-11T22:11:47.396Z,9.90
2019-01-11T22:14:37.116Z,9.30
2019-01-11T22:17:27.163Z,10.63
2019-01-11T22:20:18.049Z,9.10
2019-01-11T22:23:07.899Z,10.30
2019-01-11T22:25:57.732Z,8.40
2019-01-11T22:28:47.935Z,8.30
2019-01-11T22:31:37.997Z,7.00
2019-01-11T22:34:28.076Z,7.07
2019-01-11T22:37:17.992Z,6.50
2019-01-11T22:40:12.758Z,5.60
2019-01-11T22:43:02.775Z,5.67
2019-01-11T22:45:52.679Z,5.90
2019-01-11T22:48:42.899Z,5.80
2019-01-11T22:51:33.295Z,4.57
2019-01-11T22:54:23.267Z,5.47
2019-01-11T22:57:13.628Z,4.40
2019-01-11T23:00:05.180Z,5.23
2019-01-11T23:02:59.232Z,4.43
2019-01-11T23:05:49.673Z,5.47
2019-01-11T23:08:41.519Z,3.77
2019-01-11T23:12:03.476Z,3.70
2019-01-11T23:14:53.542Z,4.30
2019-01-11T23:18:04.614Z,4.00
2019-01-11T23:20:58.900Z,5.23
2019-01-11T23:23:48.320Z,5.10
2019-01-11T23:26:38.081Z,5.13
2019-01-11T23:29:28.765Z,5.27
2019-01-11T23:32:19.166Z,5.43
2019-01-11T23:35:09.417Z,4.90
2019-01-11T23:37:59.611Z,5.60
2019-01-11T23:40:49.413Z,5.83
2019-01-11T23:43:41.093Z,5.43
2019-01-11T23:46:31.738Z,4.70
2019-01-11T23:49:21.380Z,6.13
2019-01-11T23:52:11.499Z,4.30
2019-01-11T23:55:01.478Z,4.93
2019-01-11T23:57:51.304Z,4.40
